sensor_id;sensor_type;location;lat;lon;timestamp;temperature;humidity
7248;DHT22;3665;51.034;13.642;2022-11-09T00:02:26;9.20;99.90
7248;DHT22;3665;51.034;13.642;2022-11-09T00:07:17;9.20;99.90
7248;DHT22;3665;51.034;13.642;2022-11-09T00:12:04;9.20;99.90
7248;DHT22;3665;51.034;13.642;2022-11-09T00:16:48;9.20;99.90
7248;DHT22;3665;51.034;13.642;2022-11-09T00:21:41;9.10;99.90
7248;DHT22;3665;51.034;13.642;2022-11-09T00:26:27;9.00;99.90
7248;DHT22;3665;51.034;13.642;2022-11-09T00:31:16;9.00;99.90
7248;DHT22;3665;51.034;13.642;2022-11-09T00:36:03;8.80;99.90
7248;DHT22;3665;51.034;13.642;2022-11-09T00:40:49;8.60;99.90
7248;DHT22;3665;51.034;13.642;2022-11-09T00:45:37;8.50;99.90
7248;DHT22;3665;51.034;13.642;2022-11-09T00:50:24;8.40;99.90
7248;DHT22;3665;51.034;13.642;2022-11-09T00:55:13;8.40;1.00
7248;DHT22;3665;51.034;13.642;2022-11-09T01:00:00;8.30;1.00
7248;DHT22;3665;51.034;13.642;2022-11-09T01:04:52;8.30;31.80
7248;DHT22;3665;51.034;13.642;2022-11-09T01:09:53;8.30;1.00
7248;DHT22;3665;51.034;13.642;2022-11-09T01:14:45;8.30;1.00
7248;DHT22;3665;51.034;13.642;2022-11-09T01:19:28;8.40;1.00
7248;DHT22;3665;51.034;13.642;2022-11-09T01:24:16;8.40;1.00
7248;DHT22;3665;51.034;13.642;2022-11-09T01:29:08;8.40;1.00
7248;DHT22;3665;51.034;13.642;2022-11-09T01:33:53;8.50;1.00
7248;DHT22;3665;51.034;13.642;2022-11-09T01:38:43;8.50;1.00
7248;DHT22;3665;51.034;13.642;2022-11-09T01:43:31;8.60;99.90
7248;DHT22;3665;51.034;13.642;2022-11-09T01:48:21;8.60;99.90
7248;DHT22;3665;51.034;13.642;2022-11-09T01:53:10;8.60;99.90
7248;DHT22;3665;51.034;13.642;2022-11-09T01:57:57;8.70;99.90
7248;DHT22;3665;51.034;13.642;2022-11-09T02:02:47;8.70;99.90
7248;DHT22;3665;51.034;13.642;2022-11-09T02:07:47;8.80;99.90
7248;DHT22;3665;51.034;13.642;2022-11-09T02:12:35;8.80;99.90
7248;DHT22;3665;51.034;13.642;2022-11-09T02:17:21;8.90;99.90
7248;DHT22;3665;51.034;13.642;2022-11-09T02:22:13;9.00;99.90
7248;DHT22;3665;51.034;13.642;2022-11-09T02:26:57;8.90;99.90
7248;DHT22;3665;51.034;13.642;2022-11-09T02:31:53;8.90;99.90
7248;DHT22;3665;51.034;13.642;2022-11-09T02:36:50;9.00;99.90
7248;DHT22;3665;51.034;13.642;2022-11-09T02:41:43;9.00;99.90
7248;DHT22;3665;51.034;13.642;2022-11-09T02:46:45;9.00;99.90
7248;DHT22;3665;51.034;13.642;2022-11-09T02:51:29;8.90;99.90
7248;DHT22;3665;51.034;13.642;2022-11-09T02:56:19;8.80;99.90
7248;DHT22;3665;51.034;13.642;2022-11-09T03:01:06;8.90;90.50
7248;DHT22;3665;51.034;13.642;2022-11-09T03:05:55;8.80;99.90
7248;DHT22;3665;51.034;13.642;2022-11-09T03:10:41;8.80;92.10
7248;DHT22;3665;51.034;13.642;2022-11-09T03:15:30;8.80;90.00
7248;DHT22;3665;51.034;13.642;2022-11-09T03:20:19;8.60;99.90
7248;DHT22;3665;51.034;13.642;2022-11-09T03:25:07;8.50;99.90
7248;DHT22;3665;51.034;13.642;2022-11-09T03:29:52;8.40;99.90
7248;DHT22;3665;51.034;13.642;2022-11-09T03:34:42;8.50;99.90
7248;DHT22;3665;51.034;13.642;2022-11-09T03:39:30;8.40;99.90
7248;DHT22;3665;51.034;13.642;2022-11-09T03:44:18;8.30;99.90
7248;DHT22;3665;51.034;13.642;2022-11-09T03:49:06;8.20;99.90
7248;DHT22;3665;51.034;13.642;2022-11-09T03:53:53;8.10;99.90
7248;DHT22;3665;51.034;13.642;2022-11-09T03:59:03;8.10;99.90
7248;DHT22;3665;51.034;13.642;2022-11-09T04:03:47;8.10;99.90
7248;DHT22;3665;51.034;13.642;2022-11-09T04:08:33;8.00;99.90
7248;DHT22;3665;51.034;13.642;2022-11-09T04:13:22;8.00;99.90
7248;DHT22;3665;51.034;13.642;2022-11-09T04:18:14;7.90;99.90
7248;DHT22;3665;51.034;13.642;2022-11-09T04:23:01;7.80;99.90
7248;DHT22;3665;51.034;13.642;2022-11-09T04:27:45;7.90;99.90
7248;DHT22;3665;51.034;13.642;2022-11-09T04:32:34;7.90;99.90
7248;DHT22;3665;51.034;13.642;2022-11-09T04:37:22;7.90;99.90
7248;DHT22;3665;51.034;13.642;2022-11-09T04:42:07;8.00;99.90
7248;DHT22;3665;51.034;13.642;2022-11-09T04:46:57;8.10;99.90
7248;DHT22;3665;51.034;13.642;2022-11-09T04:51:46;8.10;99.90
7248;DHT22;3665;51.034;13.642;2022-11-09T04:56:35;8.20;99.90
7248;DHT22;3665;51.034;13.642;2022-11-09T05:01:24;8.20;99.90
7248;DHT22;3665;51.034;13.642;2022-11-09T05:06:11;8.30;99.90
7248;DHT22;3665;51.034;13.642;2022-11-09T05:11:14;8.40;99.90
7248;DHT22;3665;51.034;13.642;2022-11-09T05:16:02;8.40;99.90
7248;DHT22;3665;51.034;13.642;2022-11-09T05:20:50;8.50;99.90
7248;DHT22;3665;51.034;13.642;2022-11-09T05:25:37;8.50;95.20
7248;DHT22;3665;51.034;13.642;2022-11-09T05:30:27;8.40;99.90
7248;DHT22;3665;51.034;13.642;2022-11-09T05:35:15;8.30;99.50
7248;DHT22;3665;51.034;13.642;2022-11-09T05:40:01;8.20;99.90
7248;DHT22;3665;51.034;13.642;2022-11-09T05:44:50;8.10;99.90
7248;DHT22;3665;51.034;13.642;2022-11-09T05:49:37;8.10;99.90
7248;DHT22;3665;51.034;13.642;2022-11-09T05:54:31;8.00;99.90
7248;DHT22;3665;51.034;13.642;2022-11-09T05:59:15;8.00;99.90
7248;DHT22;3665;51.034;13.642;2022-11-09T06:04:01;8.00;99.90
7248;DHT22;3665;51.034;13.642;2022-11-09T06:08:51;8.10;99.90
7248;DHT22;3665;51.034;13.642;2022-11-09T06:13:38;8.00;99.90
7248;DHT22;3665;51.034;13.642;2022-11-09T06:18:29;8.00;99.90
7248;DHT22;3665;51.034;13.642;2022-11-09T06:23:13;8.10;99.90
7248;DHT22;3665;51.034;13.642;2022-11-09T06:28:06;8.00;99.90
7248;DHT22;3665;51.034;13.642;2022-11-09T06:32:56;8.00;99.90
7248;DHT22;3665;51.034;13.642;2022-11-09T06:37:56;8.00;99.90
7248;DHT22;3665;51.034;13.642;2022-11-09T06:42:42;8.10;99.90
7248;DHT22;3665;51.034;13.642;2022-11-09T06:47:29;8.30;99.90
7248;DHT22;3665;51.034;13.642;2022-11-09T06:52:17;8.20;99.90
7248;DHT22;3665;51.034;13.642;2022-11-09T06:57:08;8.30;99.90
7248;DHT22;3665;51.034;13.642;2022-11-09T07:01:53;8.40;99.90
7248;DHT22;3665;51.034;13.642;2022-11-09T07:06:42;8.60;99.90
7248;DHT22;3665;51.034;13.642;2022-11-09T07:11:32;8.60;99.90
7248;DHT22;3665;51.034;13.642;2022-11-09T07:16:19;8.70;99.90
7248;DHT22;3665;51.034;13.642;2022-11-09T07:21:05;8.80;99.90
7248;DHT22;3665;51.034;13.642;2022-11-09T07:25:57;8.90;99.90
7248;DHT22;3665;51.034;13.642;2022-11-09T07:30:42;9.00;78.80
7248;DHT22;3665;51.034;13.642;2022-11-09T07:35:31;9.00;76.00
7248;DHT22;3665;51.034;13.642;2022-11-09T07:40:17;9.10;61.40
7248;DHT22;3665;51.034;13.642;2022-11-09T07:45:10;9.30;69.10
7248;DHT22;3665;51.034;13.642;2022-11-09T07:49:55;9.40;49.90
7248;DHT22;3665;51.034;13.642;2022-11-09T07:54:41;9.50;33.60
7248;DHT22;3665;51.034;13.642;2022-11-09T07:59:30;9.50;36.20
7248;DHT22;3665;51.034;13.642;2022-11-09T08:04:19;9.80;37.20
7248;DHT22;3665;51.034;13.642;2022-11-09T08:09:07;9.80;29.00
7248;DHT22;3665;51.034;13.642;2022-11-09T08:13:53;9.90;23.10
7248;DHT22;3665;51.034;13.642;2022-11-09T08:19:19;10.20;18.50
7248;DHT22;3665;51.034;13.642;2022-11-09T08:24:08;10.40;13.50
7248;DHT22;3665;51.034;13.642;2022-11-09T08:29:07;10.50;8.40
7248;DHT22;3665;51.034;13.642;2022-11-09T08:33:54;10.50;3.80
7248;DHT22;3665;51.034;13.642;2022-11-09T08:38:42;10.60;4.80
7248;DHT22;3665;51.034;13.642;2022-11-09T08:43:30;10.60;8.20
7248;DHT22;3665;51.034;13.642;2022-11-09T08:48:17;10.80;4.30
7248;DHT22;3665;51.034;13.642;2022-11-09T08:53:07;11.00;3.00
7248;DHT22;3665;51.034;13.642;2022-11-09T08:57:56;11.00;6.00
7248;DHT22;3665;51.034;13.642;2022-11-09T09:02:42;11.10;8.90
7248;DHT22;3665;51.034;13.642;2022-11-09T09:07:30;11.00;12.90
7248;DHT22;3665;51.034;13.642;2022-11-09T09:12:17;11.00;6.70
7248;DHT22;3665;51.034;13.642;2022-11-09T09:17:05;10.80;10.90
7248;DHT22;3665;51.034;13.642;2022-11-09T09:21:57;11.00;10.10
7248;DHT22;3665;51.034;13.642;2022-11-09T09:26:41;11.10;13.70
7248;DHT22;3665;51.034;13.642;2022-11-09T09:31:34;11.10;10.60
7248;DHT22;3665;51.034;13.642;2022-11-09T09:36:20;10.90;13.70
7248;DHT22;3665;51.034;13.642;2022-11-09T09:41:22;10.80;19.60
7248;DHT22;3665;51.034;13.642;2022-11-09T09:46:18;10.80;21.10
7248;DHT22;3665;51.034;13.642;2022-11-09T09:51:19;10.80;12.50
7248;DHT22;3665;51.034;13.642;2022-11-09T09:56:39;10.80;7.10
7248;DHT22;3665;51.034;13.642;2022-11-09T10:01:38;10.80;5.70
7248;DHT22;3665;51.034;13.642;2022-11-09T10:06:36;10.70;11.40
7248;DHT22;3665;51.034;13.642;2022-11-09T10:11:52;10.70;10.80
7248;DHT22;3665;51.034;13.642;2022-11-09T10:16:56;10.80;3.40
7248;DHT22;3665;51.034;13.642;2022-11-09T10:22:16;10.70;10.10
7248;DHT22;3665;51.034;13.642;2022-11-09T10:27:25;10.60;10.20
7248;DHT22;3665;51.034;13.642;2022-11-09T10:32:12;10.60;5.50
7248;DHT22;3665;51.034;13.642;2022-11-09T10:37:02;10.60;8.80
7248;DHT22;3665;51.034;13.642;2022-11-09T10:41:46;10.80;11.20
7248;DHT22;3665;51.034;13.642;2022-11-09T10:47:05;10.80;5.40
7248;DHT22;3665;51.034;13.642;2022-11-09T10:52:30;11.00;1.00
7248;DHT22;3665;51.034;13.642;2022-11-09T10:57:33;10.90;1.00
7248;DHT22;3665;51.034;13.642;2022-11-09T11:02:43;10.80;1.00
7248;DHT22;3665;51.034;13.642;2022-11-09T11:07:46;10.90;1.00
7248;DHT22;3665;51.034;13.642;2022-11-09T11:18:20;11.20;1.00
7248;DHT22;3665;51.034;13.642;2022-11-09T11:23:24;11.30;1.00
7248;DHT22;3665;51.034;13.642;2022-11-09T11:28:32;11.50;1.00
7248;DHT22;3665;51.034;13.642;2022-11-09T11:33:38;11.50;1.00
7248;DHT22;3665;51.034;13.642;2022-11-09T11:38:44;11.80;1.00
7248;DHT22;3665;51.034;13.642;2022-11-09T11:43:53;11.80;1.00
7248;DHT22;3665;51.034;13.642;2022-11-09T11:54:45;11.90;1.00
7248;DHT22;3665;51.034;13.642;2022-11-09T12:00:08;11.90;1.00
7248;DHT22;3665;51.034;13.642;2022-11-09T12:05:34;12.10;1.00
7248;DHT22;3665;51.034;13.642;2022-11-09T12:10:48;12.10;1.00
7248;DHT22;3665;51.034;13.642;2022-11-09T12:15:54;12.00;1.00
7248;DHT22;3665;51.034;13.642;2022-11-09T12:21:09;12.10;1.00
7248;DHT22;3665;51.034;13.642;2022-11-09T12:26:33;11.90;1.00
7248;DHT22;3665;51.034;13.642;2022-11-09T12:31:53;11.80;1.00
7248;DHT22;3665;51.034;13.642;2022-11-09T12:37:01;11.60;1.00
7248;DHT22;3665;51.034;13.642;2022-11-09T12:42:12;11.50;1.00
7248;DHT22;3665;51.034;13.642;2022-11-09T12:47:26;11.60;1.00
7248;DHT22;3665;51.034;13.642;2022-11-09T12:52:29;11.70;1.00
7248;DHT22;3665;51.034;13.642;2022-11-09T12:57:33;11.90;1.00
7248;DHT22;3665;51.034;13.642;2022-11-09T13:02:50;12.30;1.00
7248;DHT22;3665;51.034;13.642;2022-11-09T13:07:54;12.80;1.00
7248;DHT22;3665;51.034;13.642;2022-11-09T13:13:19;13.40;1.00
7248;DHT22;3665;51.034;13.642;2022-11-09T13:18:24;13.80;1.00
7248;DHT22;3665;51.034;13.642;2022-11-09T13:23:33;14.10;1.00
7248;DHT22;3665;51.034;13.642;2022-11-09T13:29:22;14.30;1.00
7248;DHT22;3665;51.034;13.642;2022-11-09T13:34:42;14.40;1.00
7248;DHT22;3665;51.034;13.642;2022-11-09T13:39:44;14.30;1.00
7248;DHT22;3665;51.034;13.642;2022-11-09T13:44:48;14.20;1.00
7248;DHT22;3665;51.034;13.642;2022-11-09T13:49:51;14.30;1.00
7248;DHT22;3665;51.034;13.642;2022-11-09T13:54:53;14.30;1.00
7248;DHT22;3665;51.034;13.642;2022-11-09T13:59:57;14.20;1.00
7248;DHT22;3665;51.034;13.642;2022-11-09T14:05:00;13.90;1.00
7248;DHT22;3665;51.034;13.642;2022-11-09T14:10:11;13.70;1.00
7248;DHT22;3665;51.034;13.642;2022-11-09T14:15:30;13.50;1.00
7248;DHT22;3665;51.034;13.642;2022-11-09T14:20:40;13.30;1.00
7248;DHT22;3665;51.034;13.642;2022-11-09T14:25:42;13.10;1.00
7248;DHT22;3665;51.034;13.642;2022-11-09T14:30:46;12.60;1.00
7248;DHT22;3665;51.034;13.642;2022-11-09T14:35:49;12.40;1.00
7248;DHT22;3665;51.034;13.642;2022-11-09T14:40:53;12.20;1.00
7248;DHT22;3665;51.034;13.642;2022-11-09T14:45:58;12.20;1.00
7248;DHT22;3665;51.034;13.642;2022-11-09T14:51:02;12.10;1.00
7248;DHT22;3665;51.034;13.642;2022-11-09T14:56:06;11.90;1.00
7248;DHT22;3665;51.034;13.642;2022-11-09T15:01:20;11.50;1.00
7248;DHT22;3665;51.034;13.642;2022-11-09T15:06:23;11.10;1.00
7248;DHT22;3665;51.034;13.642;2022-11-09T15:11:30;10.60;3.00
7248;DHT22;3665;51.034;13.642;2022-11-09T15:16:34;10.20;7.90
7248;DHT22;3665;51.034;13.642;2022-11-09T15:21:36;9.90;18.50
7248;DHT22;3665;51.034;13.642;2022-11-09T15:26:41;9.80;23.20
7248;DHT22;3665;51.034;13.642;2022-11-09T15:31:58;9.50;40.70
7248;DHT22;3665;51.034;13.642;2022-11-09T15:37:00;9.20;48.60
7248;DHT22;3665;51.034;13.642;2022-11-09T15:42:03;9.00;69.80
7248;DHT22;3665;51.034;13.642;2022-11-09T15:47:20;8.70;99.90
7248;DHT22;3665;51.034;13.642;2022-11-09T15:52:23;8.40;99.90
7248;DHT22;3665;51.034;13.642;2022-11-09T15:57:25;8.30;99.90
7248;DHT22;3665;51.034;13.642;2022-11-09T16:02:29;8.50;1.00
7248;DHT22;3665;51.034;13.642;2022-11-09T16:07:31;8.70;1.00
7248;DHT22;3665;51.034;13.642;2022-11-09T16:12:36;8.90;1.00
7248;DHT22;3665;51.034;13.642;2022-11-09T16:17:47;8.90;99.90
7248;DHT22;3665;51.034;13.642;2022-11-09T16:22:50;8.90;99.90
7248;DHT22;3665;51.034;13.642;2022-11-09T16:27:53;8.90;99.90
7248;DHT22;3665;51.034;13.642;2022-11-09T16:32:56;8.90;99.90
7248;DHT22;3665;51.034;13.642;2022-11-09T16:38:01;8.90;99.90
7248;DHT22;3665;51.034;13.642;2022-11-09T16:43:05;8.80;99.90
7248;DHT22;3665;51.034;13.642;2022-11-09T16:48:10;8.80;99.90
7248;DHT22;3665;51.034;13.642;2022-11-09T16:53:14;8.70;99.90
7248;DHT22;3665;51.034;13.642;2022-11-09T16:58:19;8.80;1.00
7248;DHT22;3665;51.034;13.642;2022-11-09T17:03:24;8.90;1.00
7248;DHT22;3665;51.034;13.642;2022-11-09T17:08:26;8.80;1.00
7248;DHT22;3665;51.034;13.642;2022-11-09T17:13:28;8.70;99.90
7248;DHT22;3665;51.034;13.642;2022-11-09T17:18:32;8.80;99.90
7248;DHT22;3665;51.034;13.642;2022-11-09T17:23:38;8.80;99.90
7248;DHT22;3665;51.034;13.642;2022-11-09T17:28:43;8.90;99.90
7248;DHT22;3665;51.034;13.642;2022-11-09T17:33:46;8.90;1.00
7248;DHT22;3665;51.034;13.642;2022-11-09T17:38:49;8.90;1.00
7248;DHT22;3665;51.034;13.642;2022-11-09T17:43:51;8.90;1.00
7248;DHT22;3665;51.034;13.642;2022-11-09T17:48:55;8.80;1.00
7248;DHT22;3665;51.034;13.642;2022-11-09T17:53:58;8.70;11.10
7248;DHT22;3665;51.034;13.642;2022-11-09T17:59:03;8.70;99.90
7248;DHT22;3665;51.034;13.642;2022-11-09T18:04:07;8.70;99.90
7248;DHT22;3665;51.034;13.642;2022-11-09T18:09:10;8.70;1.00
7248;DHT22;3665;51.034;13.642;2022-11-09T18:14:32;8.70;1.00
7248;DHT22;3665;51.034;13.642;2022-11-09T18:19:36;8.80;1.00
7248;DHT22;3665;51.034;13.642;2022-11-09T18:24:38;8.80;18.00
7248;DHT22;3665;51.034;13.642;2022-11-09T18:29:40;9.10;1.00
7248;DHT22;3665;51.034;13.642;2022-11-09T18:34:45;9.20;99.90
7248;DHT22;3665;51.034;13.642;2022-11-09T18:39:47;9.40;1.00
7248;DHT22;3665;51.034;13.642;2022-11-09T18:44:49;9.50;1.00
7248;DHT22;3665;51.034;13.642;2022-11-09T18:49:53;9.60;99.90
7248;DHT22;3665;51.034;13.642;2022-11-09T18:54:56;9.60;1.00
7248;DHT22;3665;51.034;13.642;2022-11-09T18:59:58;9.50;1.00
7248;DHT22;3665;51.034;13.642;2022-11-09T19:05:02;9.60;1.00
7248;DHT22;3665;51.034;13.642;2022-11-09T19:10:07;9.80;1.00
7248;DHT22;3665;51.034;13.642;2022-11-09T19:15:10;10.00;99.90
7248;DHT22;3665;51.034;13.642;2022-11-09T19:20:14;10.20;99.90
7248;DHT22;3665;51.034;13.642;2022-11-09T19:25:18;10.30;99.90
7248;DHT22;3665;51.034;13.642;2022-11-09T19:30:20;10.40;99.90
7248;DHT22;3665;51.034;13.642;2022-11-09T19:35:26;10.50;99.90
7248;DHT22;3665;51.034;13.642;2022-11-09T19:40:33;10.50;99.90
7248;DHT22;3665;51.034;13.642;2022-11-09T19:45:39;10.60;99.90
7248;DHT22;3665;51.034;13.642;2022-11-09T19:50:47;10.70;99.90
7248;DHT22;3665;51.034;13.642;2022-11-09T19:56:03;10.70;99.90
7248;DHT22;3665;51.034;13.642;2022-11-09T20:01:09;10.70;99.90
7248;DHT22;3665;51.034;13.642;2022-11-09T20:06:13;10.70;99.90
7248;DHT22;3665;51.034;13.642;2022-11-09T20:11:17;10.70;1.00
7248;DHT22;3665;51.034;13.642;2022-11-09T20:16:36;10.60;1.00
7248;DHT22;3665;51.034;13.642;2022-11-09T20:21:40;10.60;99.90
7248;DHT22;3665;51.034;13.642;2022-11-09T20:26:44;10.40;1.00
7248;DHT22;3665;51.034;13.642;2022-11-09T20:31:47;10.50;1.00
7248;DHT22;3665;51.034;13.642;2022-11-09T20:36:54;10.50;99.90
7248;DHT22;3665;51.034;13.642;2022-11-09T20:41:57;10.60;1.00
7248;DHT22;3665;51.034;13.642;2022-11-09T20:47:30;10.50;1.00
7248;DHT22;3665;51.034;13.642;2022-11-09T20:53:29;10.60;99.90
7248;DHT22;3665;51.034;13.642;2022-11-09T20:58:43;10.60;1.00
7248;DHT22;3665;51.034;13.642;2022-11-09T21:03:49;10.70;1.00
7248;DHT22;3665;51.034;13.642;2022-11-09T21:08:55;10.80;40.00
7248;DHT22;3665;51.034;13.642;2022-11-09T21:14:10;10.80;1.00
7248;DHT22;3665;51.034;13.642;2022-11-09T21:19:16;10.90;1.00
7248;DHT22;3665;51.034;13.642;2022-11-09T21:24:21;11.00;1.00
7248;DHT22;3665;51.034;13.642;2022-11-09T21:29:41;11.00;1.00
7248;DHT22;3665;51.034;13.642;2022-11-09T21:35:00;10.90;1.00
7248;DHT22;3665;51.034;13.642;2022-11-09T21:40:21;10.90;99.90
7248;DHT22;3665;51.034;13.642;2022-11-09T21:45:24;10.80;1.00
7248;DHT22;3665;51.034;13.642;2022-11-09T21:50:28;10.70;99.90
7248;DHT22;3665;51.034;13.642;2022-11-09T21:55:32;10.70;1.00
7248;DHT22;3665;51.034;13.642;2022-11-09T22:00:34;10.60;1.00
7248;DHT22;3665;51.034;13.642;2022-11-09T22:06:12;10.70;1.00
7248;DHT22;3665;51.034;13.642;2022-11-09T22:11:38;10.90;1.00
7248;DHT22;3665;51.034;13.642;2022-11-09T22:17:08;11.00;53.30
7248;DHT22;3665;51.034;13.642;2022-11-09T22:22:13;10.90;1.00
7248;DHT22;3665;51.034;13.642;2022-11-09T22:27:48;11.00;1.00
7248;DHT22;3665;51.034;13.642;2022-11-09T22:32:59;11.00;99.90
7248;DHT22;3665;51.034;13.642;2022-11-09T22:38:11;10.90;99.90
7248;DHT22;3665;51.034;13.642;2022-11-09T22:43:23;10.90;99.90
7248;DHT22;3665;51.034;13.642;2022-11-09T22:48:43;10.80;1.00
7248;DHT22;3665;51.034;13.642;2022-11-09T22:54:00;10.80;1.00
7248;DHT22;3665;51.034;13.642;2022-11-09T23:00:06;10.70;1.00
7248;DHT22;3665;51.034;13.642;2022-11-09T23:05:40;10.70;1.00
7248;DHT22;3665;51.034;13.642;2022-11-09T23:10:53;10.60;1.00
7248;DHT22;3665;51.034;13.642;2022-11-09T23:16:26;10.50;1.00
7248;DHT22;3665;51.034;13.642;2022-11-09T23:21:40;10.60;1.00
7248;DHT22;3665;51.034;13.642;2022-11-09T23:26:44;10.60;1.00
7248;DHT22;3665;51.034;13.642;2022-11-09T23:31:51;10.60;1.00
7248;DHT22;3665;51.034;13.642;2022-11-09T23:36:53;10.50;1.00
7248;DHT22;3665;51.034;13.642;2022-11-09T23:42:04;10.50;1.00
7248;DHT22;3665;51.034;13.642;2022-11-09T23:47:19;10.50;1.00
7248;DHT22;3665;51.034;13.642;2022-11-09T23:52:36;10.50;1.00
7248;DHT22;3665;51.034;13.642;2022-11-09T23:57:39;10.50;1.00
